sensor_id;sensor_type;location;lat;lon;timestamp;pressure;altitude;pressure_sealevel;temperature;humidity
56241;BME280;42155;53.096;23.226;2024-02-21T00:00:51;100171.88;;;4.11;84.23
56241;BME280;42155;53.096;23.226;2024-02-21T00:02:52;100165.25;;;4.03;83.83
56241;BME280;42155;53.096;23.226;2024-02-21T00:04:52;100159.91;;;4.05;84.19
56241;BME280;42155;53.096;23.226;2024-02-21T00:06:52;100172.78;;;4.09;84.13
56241;BME280;42155;53.096;23.226;2024-02-21T00:08:53;100177.13;;;4.11;84.17
56241;BME280;42155;53.096;23.226;2024-02-21T00:10:53;100164.31;;;4.04;83.49
56241;BME280;42155;53.096;23.226;2024-02-21T00:12:53;100179.75;;;4.11;84.07
56241;BME280;42155;53.096;23.226;2024-02-21T00:14:54;100171.94;;;4.09;83.93
56241;BME280;42155;53.096;23.226;2024-02-21T00:16:54;100177.19;;;4.09;84.08
56241;BME280;42155;53.096;23.226;2024-02-21T00:18:54;100173.88;;;4.05;83.91
56241;BME280;42155;53.096;23.226;2024-02-21T00:20:55;100178.19;;;4.06;83.47
56241;BME280;42155;53.096;23.226;2024-02-21T00:22:56;100176.81;;;3.99;83.49
56241;BME280;42155;53.096;23.226;2024-02-21T00:24:56;100157.19;;;3.89;84.18
56241;BME280;42155;53.096;23.226;2024-02-21T00:26:57;100176.69;;;4.02;83.72
56241;BME280;42155;53.096;23.226;2024-02-21T00:28:57;100175.78;;;4.02;83.96
56241;BME280;42155;53.096;23.226;2024-02-21T00:30:57;100187.94;;;4.04;83.86
56241;BME280;42155;53.096;23.226;2024-02-21T00:32:57;100163.69;;;3.99;83.63
56241;BME280;42155;53.096;23.226;2024-02-21T00:34:58;100101.19;;;3.54;83.46
56241;BME280;42155;53.096;23.226;2024-02-21T00:36:58;100152.19;;;3.85;83.89
56241;BME280;42155;53.096;23.226;2024-02-21T00:38:58;100173.41;;;3.97;84.23
56241;BME280;42155;53.096;23.226;2024-02-21T00:40:59;100171.88;;;3.93;83.91
56241;BME280;42155;53.096;23.226;2024-02-21T00:42:59;100149.56;;;3.85;83.49
56241;BME280;42155;53.096;23.226;2024-02-21T00:44:59;100172.56;;;3.97;84.18
56241;BME280;42155;53.096;23.226;2024-02-21T00:47:00;100165.59;;;3.96;83.47
56241;BME280;42155;53.096;23.226;2024-02-21T00:49:00;100178.66;;;3.97;83.69
56241;BME280;42155;53.096;23.226;2024-02-21T00:51:00;100174.28;;;3.98;83.87
56241;BME280;42155;53.096;23.226;2024-02-21T00:53:01;100154.84;;;3.83;83.49
56241;BME280;42155;53.096;23.226;2024-02-21T00:55:01;100175.13;;;3.98;83.58
56241;BME280;42155;53.096;23.226;2024-02-21T00:57:01;100153.03;;;3.85;83.63
56241;BME280;42155;53.096;23.226;2024-02-21T00:59:02;100176.81;;;3.99;84.12
56241;BME280;42155;53.096;23.226;2024-02-21T01:01:02;100179.53;;;3.98;83.46
56241;BME280;42155;53.096;23.226;2024-02-21T01:03:03;100155.56;;;3.87;84.06
56241;BME280;42155;53.096;23.226;2024-02-21T01:05:03;100172.50;;;3.98;83.45
56241;BME280;42155;53.096;23.226;2024-02-21T01:07:04;100161.44;;;3.92;83.59
56241;BME280;42155;53.096;23.226;2024-02-21T01:09:04;100176.97;;;3.96;84.04
56241;BME280;42155;53.096;23.226;2024-02-21T01:11:04;100171.72;;;3.96;83.82
56241;BME280;42155;53.096;23.226;2024-02-21T01:13:05;100181.38;;;3.96;83.80
56241;BME280;42155;53.096;23.226;2024-02-21T01:15:05;100168.31;;;3.94;83.65
56241;BME280;42155;53.096;23.226;2024-02-21T01:17:06;100176.97;;;3.96;83.99
56241;BME280;42155;53.096;23.226;2024-02-21T01:19:06;100168.22;;;3.96;83.89
56241;BME280;42155;53.096;23.226;2024-02-21T01:21:07;100171.72;;;3.96;83.76
56241;BME280;42155;53.096;23.226;2024-02-21T01:23:07;100164.00;;;3.93;83.34
56241;BME280;42155;53.096;23.226;2024-02-21T01:25:08;100174.34;;;3.96;83.22
56241;BME280;42155;53.096;23.226;2024-02-21T01:27:08;100163.91;;;3.95;83.33
56241;BME280;42155;53.096;23.226;2024-02-21T01:29:08;100163.81;;;3.96;83.43
56241;BME280;42155;53.096;23.226;2024-02-21T01:31:09;100100.97;;;3.58;83.90
56241;BME280;42155;53.096;23.226;2024-02-21T01:33:09;100166.69;;;3.92;83.39
56241;BME280;42155;53.096;23.226;2024-02-21T01:35:09;100168.31;;;3.94;83.80
56241;BME280;42155;53.096;23.226;2024-02-21T01:37:10;100160.50;;;3.93;83.99
56241;BME280;42155;53.096;23.226;2024-02-21T01:39:10;100155.94;;;3.96;83.98
56241;BME280;42155;53.096;23.226;2024-02-21T01:41:10;100155.94;;;3.96;83.30
56241;BME280;42155;53.096;23.226;2024-02-21T01:43:19;100134.47;;;3.88;83.76
56241;BME280;42155;53.096;23.226;2024-02-21T01:45:20;100136.88;;;3.75;83.92
56241;BME280;42155;53.096;23.226;2024-02-21T01:47:20;100135.09;;;3.76;83.86
56241;BME280;42155;53.096;23.226;2024-02-21T01:49:21;100149.16;;;3.92;83.76
56241;BME280;42155;53.096;23.226;2024-02-21T01:51:21;100142.22;;;3.91;83.21
56241;BME280;42155;53.096;23.226;2024-02-21T01:53:25;100142.22;;;3.91;83.56
56241;BME280;42155;53.096;23.226;2024-02-21T01:55:27;100143.91;;;3.92;83.60
56241;BME280;42155;53.096;23.226;2024-02-21T01:57:28;100149.00;;;3.95;83.95
56241;BME280;42155;53.096;23.226;2024-02-21T01:59:28;100133.72;;;3.86;83.67
56241;BME280;42155;53.096;23.226;2024-02-21T02:01:29;100155.09;;;3.96;83.65
56241;BME280;42155;53.096;23.226;2024-02-21T02:03:30;100146.28;;;3.97;83.97
56241;BME280;42155;53.096;23.226;2024-02-21T02:05:32;100149.84;;;3.96;83.63
56241;BME280;42155;53.096;23.226;2024-02-21T02:07:32;100145.44;;;3.96;83.59
56241;BME280;42155;53.096;23.226;2024-02-21T02:09:33;100152.25;;;4.00;83.94
56241;BME280;42155;53.096;23.226;2024-02-21T02:11:33;100152.25;;;4.00;83.32
56241;BME280;42155;53.096;23.226;2024-02-21T02:13:33;100128.22;;;3.91;83.66
56241;BME280;42155;53.096;23.226;2024-02-21T02:15:48;100151.31;;;4.01;83.19
56241;BME280;42155;53.096;23.226;2024-02-21T02:17:49;100148.06;;;3.96;83.35
56241;BME280;42155;53.096;23.226;2024-02-21T02:19:49;100153.09;;;4.01;83.34
56241;BME280;42155;53.096;23.226;2024-02-21T02:21:51;100144.38;;;4.00;83.55
56241;BME280;42155;53.096;23.226;2024-02-21T02:23:53;100142.06;;;3.94;83.39
56241;BME280;42155;53.096;23.226;2024-02-21T02:25:54;100143.44;;;4.01;83.52
56241;BME280;42155;53.096;23.226;2024-02-21T02:27:54;100151.31;;;4.01;83.27
56241;BME280;42155;53.096;23.226;2024-02-21T02:29:54;100128.16;;;3.92;84.04
56241;BME280;42155;53.096;23.226;2024-02-21T02:31:55;100115.47;;;3.83;84.07
56241;BME280;42155;53.096;23.226;2024-02-21T02:33:55;100132.94;;;4.01;84.16
56241;BME280;42155;53.096;23.226;2024-02-21T02:35:55;100147.84;;;4.01;83.56
56241;BME280;42155;53.096;23.226;2024-02-21T02:37:56;100107.78;;;3.80;84.25
56241;BME280;42155;53.096;23.226;2024-02-21T02:39:56;100138.38;;;3.98;84.08
56241;BME280;42155;53.096;23.226;2024-02-21T02:41:57;100122.91;;;3.92;84.29
56241;BME280;42155;53.096;23.226;2024-02-21T02:43:57;100131.09;;;3.86;84.41
56241;BME280;42155;53.096;23.226;2024-02-21T02:45:57;100130.78;;;3.92;84.27
56241;BME280;42155;53.096;23.226;2024-02-21T02:47:58;100142.78;;;3.98;84.28
56241;BME280;42155;53.096;23.226;2024-02-21T02:49:58;100141.88;;;3.97;84.16
56241;BME280;42155;53.096;23.226;2024-02-21T02:51:59;100137.44;;;3.99;84.49
56241;BME280;42155;53.096;23.226;2024-02-21T02:53:59;100143.66;;;3.97;84.04
56241;BME280;42155;53.096;23.226;2024-02-21T02:55:59;100135.66;;;4.00;84.58
56241;BME280;42155;53.096;23.226;2024-02-21T02:58:00;100139.97;;;4.01;84.08
56241;BME280;42155;53.096;23.226;2024-02-21T03:00:00;100138.19;;;4.01;84.23
56241;BME280;42155;53.096;23.226;2024-02-21T03:02:01;100119.38;;;3.93;84.22
56241;BME280;42155;53.096;23.226;2024-02-21T03:04:01;100140.91;;;4.00;84.55
56241;BME280;42155;53.096;23.226;2024-02-21T03:06:02;100143.28;;;4.04;83.92
56241;BME280;42155;53.096;23.226;2024-02-21T03:08:02;100142.53;;;4.02;84.07
56241;BME280;42155;53.096;23.226;2024-02-21T03:10:03;100135.56;;;4.01;84.04
56241;BME280;42155;53.096;23.226;2024-02-21T03:12:05;100099.13;;;3.78;84.25
56241;BME280;42155;53.096;23.226;2024-02-21T03:14:05;100140.06;;;3.99;84.87
56241;BME280;42155;53.096;23.226;2024-02-21T03:16:06;100137.56;;;3.96;84.43
56241;BME280;42155;53.096;23.226;2024-02-21T03:18:06;100116.66;;;3.77;84.69
56241;BME280;42155;53.096;23.226;2024-02-21T03:20:07;100144.38;;;4.00;84.89
56241;BME280;42155;53.096;23.226;2024-02-21T03:22:07;100107.94;;;3.77;84.49
56241;BME280;42155;53.096;23.226;2024-02-21T03:24:07;100141.75;;;4.00;84.59
56241;BME280;42155;53.096;23.226;2024-02-21T03:26:08;100128.16;;;3.92;84.70
56241;BME280;42155;53.096;23.226;2024-02-21T03:28:08;100133.97;;;3.99;85.08
56241;BME280;42155;53.096;23.226;2024-02-21T03:30:09;100123.81;;;3.91;84.51
56241;BME280;42155;53.096;23.226;2024-02-21T03:32:09;100128.94;;;3.94;84.81
56241;BME280;42155;53.096;23.226;2024-02-21T03:34:10;100139.91;;;4.02;84.50
56241;BME280;42155;53.096;23.226;2024-02-21T03:36:14;100149.53;;;4.02;84.37
56241;BME280;42155;53.096;23.226;2024-02-21T03:38:14;100132.94;;;4.01;84.37
56241;BME280;42155;53.096;23.226;2024-02-21T03:40:14;100130.25;;;4.03;84.54
56241;BME280;42155;53.096;23.226;2024-02-21T03:42:15;100104.09;;;3.84;84.35
56241;BME280;42155;53.096;23.226;2024-02-21T03:44:15;100133.72;;;4.03;84.40
56241;BME280;42155;53.096;23.226;2024-02-21T03:46:15;100107.69;;;3.81;84.52
56241;BME280;42155;53.096;23.226;2024-02-21T03:48:16;100098.59;;;3.89;84.55
56241;BME280;42155;53.096;23.226;2024-02-21T03:50:16;100125.00;;;4.03;84.90
56241;BME280;42155;53.096;23.226;2024-02-21T03:52:16;100125.00;;;4.03;84.72
56241;BME280;42155;53.096;23.226;2024-02-21T03:54:17;100121.44;;;4.04;84.95
56241;BME280;42155;53.096;23.226;2024-02-21T03:56:17;100081.53;;;3.80;84.70
56241;BME280;42155;53.096;23.226;2024-02-21T03:58:17;100123.13;;;4.05;84.27
56241;BME280;42155;53.096;23.226;2024-02-21T04:00:18;100123.22;;;4.03;85.16
56241;BME280;42155;53.096;23.226;2024-02-21T04:02:18;100118.25;;;3.97;85.21
56241;BME280;42155;53.096;23.226;2024-02-21T04:04:19;100120.88;;;3.97;84.91
56241;BME280;42155;53.096;23.226;2024-02-21T04:06:19;100117.34;;;3.98;85.03
56241;BME280;42155;53.096;23.226;2024-02-21T04:08:19;100126.31;;;3.94;85.18
56241;BME280;42155;53.096;23.226;2024-02-21T04:10:20;100095.50;;;3.80;84.98
56241;BME280;42155;53.096;23.226;2024-02-21T04:12:20;100123.75;;;3.93;85.18
56241;BME280;42155;53.096;23.226;2024-02-21T04:14:20;100125.28;;;3.97;85.57
56241;BME280;42155;53.096;23.226;2024-02-21T04:16:21;100128.53;;;4.02;85.24
56241;BME280;42155;53.096;23.226;2024-02-21T04:18:21;100124.16;;;4.02;85.56
56241;BME280;42155;53.096;23.226;2024-02-21T04:20:21;100119.81;;;4.01;84.90
56241;BME280;42155;53.096;23.226;2024-02-21T04:22:22;100082.00;;;3.71;85.61
56241;BME280;42155;53.096;23.226;2024-02-21T04:24:22;100128.72;;;3.99;85.74
56241;BME280;42155;53.096;23.226;2024-02-21T04:26:22;100125.16;;;4.00;85.75
56241;BME280;42155;53.096;23.226;2024-02-21T04:28:23;100121.53;;;4.02;85.51
56241;BME280;42155;53.096;23.226;2024-02-21T04:30:23;100113.47;;;4.05;85.15
56241;BME280;42155;53.096;23.226;2024-02-21T04:32:23;100119.56;;;4.06;84.87
56241;BME280;42155;53.096;23.226;2024-02-21T04:34:24;100111.63;;;4.07;85.42
56241;BME280;42155;53.096;23.226;2024-02-21T04:36:24;100103.81;;;4.06;85.15
56241;BME280;42155;53.096;23.226;2024-02-21T04:38:24;100105.44;;;4.08;85.69
56241;BME280;42155;53.096;23.226;2024-02-21T04:40:25;100112.31;;;4.11;85.53
56241;BME280;42155;53.096;23.226;2024-02-21T04:42:25;100112.06;;;4.16;85.83
56241;BME280;42155;53.096;23.226;2024-02-21T04:44:25;100085.06;;;3.96;85.30
56241;BME280;42155;53.096;23.226;2024-02-21T04:46:25;100112.31;;;4.11;85.34
56241;BME280;42155;53.096;23.226;2024-02-21T04:48:26;100117.31;;;4.16;85.68
56241;BME280;42155;53.096;23.226;2024-02-21T04:50:26;100097.91;;;4.02;85.50
56241;BME280;42155;53.096;23.226;2024-02-21T04:52:27;100106.75;;;4.17;85.95
56241;BME280;42155;53.096;23.226;2024-02-21T04:54:27;100080.41;;;4.01;85.50
56241;BME280;42155;53.096;23.226;2024-02-21T04:56:27;100101.66;;;4.14;85.51
56241;BME280;42155;53.096;23.226;2024-02-21T04:58:28;100107.50;;;4.19;85.76
56241;BME280;42155;53.096;23.226;2024-02-21T05:00:28;100094.78;;;4.12;85.70
56241;BME280;42155;53.096;23.226;2024-02-21T05:02:28;100117.78;;;4.24;86.14
56241;BME280;42155;53.096;23.226;2024-02-21T05:04:29;100115.16;;;4.24;85.86
56241;BME280;42155;53.096;23.226;2024-02-21T05:06:29;100118.63;;;4.24;86.02
56241;BME280;42155;53.096;23.226;2024-02-21T05:08:29;100126.44;;;4.26;85.60
56241;BME280;42155;53.096;23.226;2024-02-21T05:10:30;100124.72;;;4.25;86.24
56241;BME280;42155;53.096;23.226;2024-02-21T05:12:30;100120.34;;;4.25;85.64
56241;BME280;42155;53.096;23.226;2024-02-21T05:14:30;100106.66;;;4.19;86.12
56241;BME280;42155;53.096;23.226;2024-02-21T05:16:31;100112.53;;;4.24;86.01
56241;BME280;42155;53.096;23.226;2024-02-21T05:18:32;100082.06;;;4.04;85.68
56241;BME280;42155;53.096;23.226;2024-02-21T05:20:33;100111.53;;;4.26;85.79
56241;BME280;42155;53.096;23.226;2024-02-21T05:22:33;100098.78;;;4.19;85.94
56241;BME280;42155;53.096;23.226;2024-02-21T05:24:33;100112.53;;;4.24;85.76
56241;BME280;42155;53.096;23.226;2024-02-21T05:26:34;100122.75;;;4.30;85.74
56241;BME280;42155;53.096;23.226;2024-02-21T05:28:34;100122.75;;;4.30;85.70
56241;BME280;42155;53.096;23.226;2024-02-21T05:30:34;100118.31;;;4.30;86.18
56241;BME280;42155;53.096;23.226;2024-02-21T05:32:35;100100.22;;;4.24;85.94
56241;BME280;42155;53.096;23.226;2024-02-21T05:34:35;100124.25;;;4.34;86.15
56241;BME280;42155;53.096;23.226;2024-02-21T05:36:36;100103.56;;;4.28;85.53
56241;BME280;42155;53.096;23.226;2024-02-21T05:38:36;100091.69;;;4.21;85.67
56241;BME280;42155;53.096;23.226;2024-02-21T05:40:37;100116.31;;;4.36;86.11
56241;BME280;42155;53.096;23.226;2024-02-21T05:42:37;100103.41;;;4.31;85.94
56241;BME280;42155;53.096;23.226;2024-02-21T05:44:37;100110.22;;;4.35;86.02
56241;BME280;42155;53.096;23.226;2024-02-21T05:46:38;100113.75;;;4.34;85.66
56241;BME280;42155;53.096;23.226;2024-02-21T05:48:38;100112.03;;;4.33;85.63
56241;BME280;42155;53.096;23.226;2024-02-21T05:50:38;100101.88;;;4.27;85.63
56241;BME280;42155;53.096;23.226;2024-02-21T05:52:39;100094.47;;;4.18;85.55
56241;BME280;42155;53.096;23.226;2024-02-21T05:54:39;100103.88;;;4.22;86.16
56241;BME280;42155;53.096;23.226;2024-02-21T05:56:43;100108.72;;;4.29;86.11
56241;BME280;42155;53.096;23.226;2024-02-21T05:58:43;100101.88;;;4.27;86.05
56241;BME280;42155;53.096;23.226;2024-02-21T06:00:44;100107.88;;;4.29;85.50
56241;BME280;42155;53.096;23.226;2024-02-21T06:02:44;100106.34;;;4.25;85.10
56241;BME280;42155;53.096;23.226;2024-02-21T06:04:44;100108.97;;;4.25;85.49
56241;BME280;42155;53.096;23.226;2024-02-21T06:06:45;100110.59;;;4.27;85.68
56241;BME280;42155;53.096;23.226;2024-02-21T06:08:45;100101.72;;;4.30;85.83
56241;BME280;42155;53.096;23.226;2024-02-21T06:10:45;100114.75;;;4.31;85.93
56241;BME280;42155;53.096;23.226;2024-02-21T06:12:46;100112.91;;;4.33;85.77
56241;BME280;42155;53.096;23.226;2024-02-21T06:14:46;100109.19;;;4.38;85.39
56241;BME280;42155;53.096;23.226;2024-02-21T06:16:46;100115.38;;;4.37;86.13
56241;BME280;42155;53.096;23.226;2024-02-21T06:18:47;100110.97;;;4.37;85.95
56241;BME280;42155;53.096;23.226;2024-02-21T06:20:47;100036.84;;;3.97;85.64
56241;BME280;42155;53.096;23.226;2024-02-21T06:22:47;100108.78;;;4.45;85.60
56241;BME280;42155;53.096;23.226;2024-02-21T06:24:48;100118.28;;;4.48;86.16
56241;BME280;42155;53.096;23.226;2024-02-21T06:26:48;100083.94;;;4.35;85.73
56241;BME280;42155;53.096;23.226;2024-02-21T06:28:48;100103.97;;;4.53;86.16
56241;BME280;42155;53.096;23.226;2024-02-21T06:30:49;100090.72;;;4.39;85.53
56241;BME280;42155;53.096;23.226;2024-02-21T06:32:49;100114.66;;;4.50;86.46
56241;BME280;42155;53.096;23.226;2024-02-21T06:34:49;100113.56;;;4.54;85.81
56241;BME280;42155;53.096;23.226;2024-02-21T06:36:50;100104.59;;;4.58;86.38
56241;BME280;42155;53.096;23.226;2024-02-21T06:38:50;100110.44;;;4.64;86.18
56241;BME280;42155;53.096;23.226;2024-02-21T06:40:51;100101.78;;;4.62;85.85
56241;BME280;42155;53.096;23.226;2024-02-21T06:42:51;100092.28;;;4.59;85.69
56241;BME280;42155;53.096;23.226;2024-02-21T06:44:51;100086.00;;;4.62;85.54
56241;BME280;42155;53.096;23.226;2024-02-21T06:46:52;100114.72;;;4.82;85.76
56241;BME280;42155;53.096;23.226;2024-02-21T06:48:52;100099.88;;;4.81;85.55
56241;BME280;42155;53.096;23.226;2024-02-21T06:50:53;100099.09;;;4.79;85.74
56241;BME280;42155;53.096;23.226;2024-02-21T06:52:53;100094.75;;;4.78;85.33
56241;BME280;42155;53.096;23.226;2024-02-21T06:54:53;100105.13;;;4.97;85.31
56241;BME280;42155;53.096;23.226;2024-02-21T06:56:54;100116.31;;;5.00;85.62
56241;BME280;42155;53.096;23.226;2024-02-21T06:58:57;100117.19;;;5.01;85.53
56241;BME280;42155;53.096;23.226;2024-02-21T07:00:58;100085.28;;;4.91;85.62
56241;BME280;42155;53.096;23.226;2024-02-21T07:02:58;100112.59;;;5.04;85.58
56241;BME280;42155;53.096;23.226;2024-02-21T07:04:58;100066.00;;;4.75;85.55
56241;BME280;42155;53.096;23.226;2024-02-21T07:06:59;100118.44;;;5.09;85.34
56241;BME280;42155;53.096;23.226;2024-02-21T07:08:59;100117.50;;;5.10;85.43
56241;BME280;42155;53.096;23.226;2024-02-21T07:10:59;100113.00;;;5.13;85.68
56241;BME280;42155;53.096;23.226;2024-02-21T07:13:00;100090.97;;;4.99;85.58
56241;BME280;42155;53.096;23.226;2024-02-21T07:15:00;100113.00;;;5.13;85.09
56241;BME280;42155;53.096;23.226;2024-02-21T07:17:00;100106.25;;;5.08;85.35
56241;BME280;42155;53.096;23.226;2024-02-21T07:19:01;100123.72;;;5.09;85.68
56241;BME280;42155;53.096;23.226;2024-02-21T07:21:02;100103.78;;;5.05;85.48
56241;BME280;42155;53.096;23.226;2024-02-21T07:23:03;100045.31;;;4.69;85.76
56241;BME280;42155;53.096;23.226;2024-02-21T07:25:03;100112.84;;;5.00;85.46
56241;BME280;42155;53.096;23.226;2024-02-21T07:27:04;100106.91;;;4.96;85.57
56241;BME280;42155;53.096;23.226;2024-02-21T07:29:04;100043.03;;;4.63;85.59
56241;BME280;42155;53.096;23.226;2024-02-21T07:31:05;100104.97;;;5.00;85.86
56241;BME280;42155;53.096;23.226;2024-02-21T07:33:05;100109.03;;;5.05;85.39
56241;BME280;42155;53.096;23.226;2024-02-21T07:35:05;100108.78;;;5.10;85.90
56241;BME280;42155;53.096;23.226;2024-02-21T07:37:06;100116.50;;;5.13;85.67
56241;BME280;42155;53.096;23.226;2024-02-21T07:39:06;100107.06;;;5.25;85.85
56241;BME280;42155;53.096;23.226;2024-02-21T07:41:07;100106.72;;;5.31;85.30
56241;BME280;42155;53.096;23.226;2024-02-21T07:43:07;100110.13;;;5.33;85.34
56241;BME280;42155;53.096;23.226;2024-02-21T07:45:08;100090.91;;;5.31;85.38
56241;BME280;42155;53.096;23.226;2024-02-21T07:47:08;100092.66;;;5.32;85.02
56241;BME280;42155;53.096;23.226;2024-02-21T07:49:09;100097.91;;;5.32;85.57
56241;BME280;42155;53.096;23.226;2024-02-21T07:51:09;100046.25;;;4.99;85.30
56241;BME280;42155;53.096;23.226;2024-02-21T07:53:09;100106.72;;;5.31;84.97
56241;BME280;42155;53.096;23.226;2024-02-21T07:55:10;100094.00;;;5.23;85.73
56241;BME280;42155;53.096;23.226;2024-02-21T07:57:10;100099.91;;;5.27;85.28
56241;BME280;42155;53.096;23.226;2024-02-21T07:59:10;100099.00;;;5.28;85.22
56241;BME280;42155;53.096;23.226;2024-02-21T08:01:11;100099.19;;;5.25;85.62
56241;BME280;42155;53.096;23.226;2024-02-21T08:03:11;100091.13;;;5.28;85.48
56241;BME280;42155;53.096;23.226;2024-02-21T08:05:11;100032.69;;;4.91;85.69
56241;BME280;42155;53.096;23.226;2024-02-21T08:07:12;100095.34;;;5.30;85.95
56241;BME280;42155;53.096;23.226;2024-02-21T08:09:12;100080.97;;;5.36;85.20
56241;BME280;42155;53.096;23.226;2024-02-21T08:11:12;100077.13;;;5.27;85.67
56241;BME280;42155;53.096;23.226;2024-02-21T08:13:13;100093.88;;;5.41;85.56
56241;BME280;42155;53.096;23.226;2024-02-21T08:15:13;100091.09;;;5.44;85.40
56241;BME280;42155;53.096;23.226;2024-02-21T08:17:14;100086.66;;;5.44;85.22
56241;BME280;42155;53.096;23.226;2024-02-21T08:19:14;100081.59;;;5.41;85.16
56241;BME280;42155;53.096;23.226;2024-02-21T08:21:14;100089.41;;;5.43;85.75
56241;BME280;42155;53.096;23.226;2024-02-21T08:23:18;100086.66;;;5.44;85.73
56241;BME280;42155;53.096;23.226;2024-02-21T08:25:23;100079.88;;;5.40;85.30
56241;BME280;42155;53.096;23.226;2024-02-21T08:27:23;100088.34;;;5.45;85.26
56241;BME280;42155;53.096;23.226;2024-02-21T08:29:24;100081.34;;;5.46;84.98
56241;BME280;42155;53.096;23.226;2024-02-21T08:31:24;100074.44;;;5.43;85.59
56241;BME280;42155;53.096;23.226;2024-02-21T08:33:24;100057.22;;;5.38;85.71
56241;BME280;42155;53.096;23.226;2024-02-21T08:35:25;100055.06;;;5.44;84.95
56241;BME280;42155;53.096;23.226;2024-02-21T08:37:27;100081.44;;;5.58;85.51
56241;BME280;42155;53.096;23.226;2024-02-21T08:39:27;100059.09;;;5.66;85.11
56241;BME280;42155;53.096;23.226;2024-02-21T08:41:28;100059.59;;;5.72;85.42
56241;BME280;42155;53.096;23.226;2024-02-21T08:43:30;100058.69;;;5.87;84.82
56241;BME280;42155;53.096;23.226;2024-02-21T08:45:30;100057.13;;;5.99;84.94
56241;BME280;42155;53.096;23.226;2024-02-21T08:47:31;100026.88;;;5.91;84.48
56241;BME280;42155;53.096;23.226;2024-02-21T08:49:31;100058.66;;;6.18;83.80
56241;BME280;42155;53.096;23.226;2024-02-21T08:51:32;100060.16;;;6.22;84.27
56241;BME280;42155;53.096;23.226;2024-02-21T08:53:32;100060.00;;;6.25;84.32
56241;BME280;42155;53.096;23.226;2024-02-21T08:55:32;100054.91;;;6.22;84.25
56241;BME280;42155;53.096;23.226;2024-02-21T08:57:32;100069.59;;;6.26;84.23
56241;BME280;42155;53.096;23.226;2024-02-21T08:59:33;100066.66;;;6.30;83.77
56241;BME280;42155;53.096;23.226;2024-02-21T09:01:33;100063.66;;;6.36;83.77
56241;BME280;42155;53.096;23.226;2024-02-21T09:03:33;100062.06;;;6.34;83.93
56241;BME280;42155;53.096;23.226;2024-02-21T09:05:34;100051.69;;;6.31;84.22
56241;BME280;42155;53.096;23.226;2024-02-21T09:07:34;100066.00;;;6.41;84.01
56241;BME280;42155;53.096;23.226;2024-02-21T09:09:34;100071.00;;;6.46;83.75
56241;BME280;42155;53.096;23.226;2024-02-21T09:11:35;100045.03;;;6.40;84.05
56241;BME280;42155;53.096;23.226;2024-02-21T09:13:35;100059.22;;;6.51;84.10
56241;BME280;42155;53.096;23.226;2024-02-21T09:15:36;100046.59;;;6.42;83.54
56241;BME280;42155;53.096;23.226;2024-02-21T09:17:36;100069.41;;;6.57;83.62
56241;BME280;42155;53.096;23.226;2024-02-21T09:19:36;100068.75;;;6.54;83.22
56241;BME280;42155;53.096;23.226;2024-02-21T09:21:37;100075.03;;;6.51;83.88
56241;BME280;42155;53.096;23.226;2024-02-21T09:23:38;100071.66;;;6.49;83.71
56241;BME280;42155;53.096;23.226;2024-02-21T09:25:38;100076.19;;;6.47;83.97
56241;BME280;42155;53.096;23.226;2024-02-21T09:27:38;100075.59;;;6.42;83.49
56241;BME280;42155;53.096;23.226;2024-02-21T09:29:39;100073.91;;;6.41;84.05
56241;BME280;42155;53.096;23.226;2024-02-21T09:31:39;100069.03;;;6.35;83.86
56241;BME280;42155;53.096;23.226;2024-02-21T09:33:39;100073.44;;;6.34;83.83
56241;BME280;42155;53.096;23.226;2024-02-21T09:35:40;100051.88;;;6.28;83.81
56241;BME280;42155;53.096;23.226;2024-02-21T09:37:40;100072.78;;;6.45;84.07
56241;BME280;42155;53.096;23.226;2024-02-21T09:39:40;100070.16;;;6.45;83.88
56241;BME280;42155;53.096;23.226;2024-02-21T09:41:45;100063.47;;;6.54;83.16
56241;BME280;42155;53.096;23.226;2024-02-21T09:43:49;100062.44;;;6.56;83.47
56241;BME280;42155;53.096;23.226;2024-02-21T09:45:51;100063.28;;;6.57;83.43
56241;BME280;42155;53.096;23.226;2024-02-21T09:48:05;100060.94;;;6.52;83.79
56241;BME280;42155;53.096;23.226;2024-02-21T09:50:08;100058.28;;;6.52;83.63
56241;BME280;42155;53.096;23.226;2024-02-21T09:52:08;100055.66;;;6.52;83.75
56241;BME280;42155;53.096;23.226;2024-02-21T09:54:10;100053.59;;;6.57;83.62
56241;BME280;42155;53.096;23.226;2024-02-21T09:56:11;100063.00;;;6.61;83.16
56241;BME280;42155;53.096;23.226;2024-02-21T09:58:12;100058.47;;;6.63;83.64
56241;BME280;42155;53.096;23.226;2024-02-21T10:00:13;100053.09;;;6.65;83.25
56241;BME280;42155;53.096;23.226;2024-02-21T10:02:13;100054.50;;;6.71;83.57
56241;BME280;42155;53.096;23.226;2024-02-21T10:04:13;100060.63;;;6.71;83.15
56241;BME280;42155;53.096;23.226;2024-02-21T10:06:14;100045.09;;;6.67;82.98
56241;BME280;42155;53.096;23.226;2024-02-21T10:08:14;100043.66;;;6.75;83.13
56241;BME280;42155;53.096;23.226;2024-02-21T10:10:15;100042.78;;;6.75;82.97
56241;BME280;42155;53.096;23.226;2024-02-21T10:12:15;100049.88;;;6.74;83.05
56241;BME280;42155;53.096;23.226;2024-02-21T10:14:15;100043.56;;;6.77;83.42
56241;BME280;42155;53.096;23.226;2024-02-21T10:16:16;100038.09;;;6.80;82.83
56241;BME280;42155;53.096;23.226;2024-02-21T10:18:17;100014.41;;;6.66;82.84
56241;BME280;42155;53.096;23.226;2024-02-21T10:20:18;100018.97;;;6.76;83.00
56241;BME280;42155;53.096;23.226;2024-02-21T10:22:18;100007.78;;;6.73;82.74
56241;BME280;42155;53.096;23.226;2024-02-21T10:24:26;100042.38;;;6.95;82.70
56241;BME280;42155;53.096;23.226;2024-02-21T10:26:27;100048.50;;;6.96;82.72
56241;BME280;42155;53.096;23.226;2024-02-21T10:28:27;100030.03;;;6.96;82.99
56241;BME280;42155;53.096;23.226;2024-02-21T10:30:28;100031.44;;;7.01;82.75